ンジャメナ の空港の天気 - METARとTAF

ンジャメナ国際空港 ( FTTJ / NDJ ) - チャド ンジャメナ
飛行場実況気象(Metar)
観測時間02/17 15:00 WAT (02/17 14:00 UTC)
風向・風速北北西 5m/s
視程10km以上
天気現象
なし
気温32℃
湿度7%
気圧1012hPa
METARFTTJ 171400Z 34010KT 340V050 CAVOK 32/M08 Q1012 NOSIG
過去の天気等 Google飛行場航空写真 Wunderground天気予報

過去48時間のMETAR

飛行場予報(TAF)
発表時間: 2/17 12:00 WAT (2/17 11:00 UTC)
予報対象時間: 17日13時 WAT ~ 18日19時 WAT
風向・風速北 5m/s
視程8000m
なし
18日5時 WAT ~ 18日8時 WAT に一時的に
視程4000m
天気現象煙霧
18日16時 WAT ~ 18日18時 WAT に徐々に
視程4000m
天気現象風塵
TAF FTTJ 171100Z 1712/1818 36010KT 8000 NSC
TEMPO 1804/1807 4000 HZ
BECMG 1815/1817 4000 DU